Terminal Aerodrome Forecast
Issued by NWS Grand Forks, ND

Home | Current Version | Previous Version | Graphics & Text | Print | Product List | Glossary Off
Versions: 1 2 3 4 5 6 7 8 9 10 11 12 13 14 15 16 17 18 19 20 21

000
FTUS43 KFGF 310520
TAFGFK
TAF
KGFK 310520Z 3106/0106 08009KT P6SM -RA BKN090
     FM310900 14009KT P6SM VCSH BKN015
     FM311300 20012KT P6SM BKN025
     FM311700 19012KT P6SM BKN040
     FM312300 19010KT P6SM BKN120=

USA.gov is the U.S. government's official web portal to all federal, state and local government web resources and services.